Time;durP1;ratioP1;P1;durP2;ratioP2;P2;SDS_P1;SDS_P2;PMS_P1;PMS_P2;Temp;Humidity;BMP_temperature;BMP_pressure;BME280_temperature;BME280_humidity;BME280_pressure;Samples;Min_cycle;Max_cycle;Signal;HPM_P1;HPM_P2
2023/06/05 00:02:16;;;;;;;4.75;2.10;;;11.50;99.90;;;;;;5017316;28;20380;-83
2023/06/05 00:04:43;;;;;;;4.68;2.92;;;11.60;99.90;;;;;;5056040;28;20052;-81
2023/06/05 00:07:09;;;;;;;3.38;2.45;;;11.60;99.90;;;;;;5023908;28;20063;-83
2023/06/05 00:09:35;;;;;;;4.55;2.72;;;11.60;99.90;;;;;;5055762;28;20051;-83
2023/06/05 00:12:01;;;;;;;4.40;2.60;;;11.60;99.90;;;;;;5023652;28;20047;-82
2023/06/05 00:14:26;;;;;;;3.13;2.47;;;11.60;99.90;;;;;;5038123;28;20218;-83
2023/06/05 00:16:52;;;;;;;4.60;2.55;;;11.60;99.90;;;;;;5022996;28;20136;-82
2023/06/05 00:19:18;;;;;;;2.75;2.13;;;11.70;99.90;;;;;;5022233;28;20110;-82
2023/06/05 00:21:44;;;;;;;3.55;2.38;;;11.70;99.90;;;;;;5023459;28;20120;-83
2023/06/05 00:24:09;;;;;;;5.22;3.58;;;11.70;99.90;;;;;;5040016;28;20040;-82
2023/06/05 00:26:35;;;;;;;7.03;2.83;;;11.70;99.90;;;;;;5022582;28;20054;-83
2023/06/05 00:29:01;;;;;;;6.63;3.30;;;11.70;99.90;;;;;;5023455;28;20071;-83
2023/06/05 00:31:27;;;;;;;5.28;2.70;;;11.70;99.90;;;;;;5023029;28;20044;-81
2023/06/05 00:33:53;;;;;;;5.38;2.65;;;11.80;99.90;;;;;;5023822;28;20086;-82
2023/06/05 00:36:22;;;;;;;3.88;2.80;;;11.80;99.90;;;;;;5055580;28;20155;-82
2023/06/05 00:38:50;;;;;;;4.32;2.75;;;11.80;99.90;;;;;;5040031;28;20051;-82
2023/06/05 00:41:16;;;;;;;3.90;2.90;;;11.80;99.90;;;;;;5040203;28;20071;-82
2023/06/05 00:43:42;;;;;;;2.55;2.22;;;11.80;99.90;;;;;;5022779;28;20491;-81
2023/06/05 00:46:07;;;;;;;2.90;2.22;;;11.80;99.90;;;;;;5041267;28;20052;-82
2023/06/05 00:48:34;;;;;;;4.20;2.10;;;11.80;99.90;;;;;;5039309;28;20040;-82
2023/06/05 00:51:00;;;;;;;4.97;2.75;;;11.90;99.90;;;;;;5023835;28;20040;-81
2023/06/05 00:53:28;;;;;;;3.72;2.40;;;11.90;99.90;;;;;;5056454;28;20092;-82
2023/06/05 00:55:54;;;;;;;4.55;2.47;;;11.90;99.90;;;;;;5040965;28;20040;-82
2023/06/05 00:58:20;;;;;;;10.68;3.00;;;11.90;99.90;;;;;;5024222;28;20040;-82
2023/06/05 01:00:49;;;;;;;3.30;2.05;;;11.90;99.90;;;;;;5023471;28;20043;-81
2023/06/05 01:03:16;;;;;;;9.15;2.30;;;11.90;99.90;;;;;;5041064;28;20660;-83
2023/06/05 01:05:43;;;;;;;6.20;2.65;;;11.90;99.90;;;;;;5039975;28;20060;-82
2023/06/05 01:08:14;;;;;;;5.82;2.90;;;11.90;99.90;;;;;;5024624;28;20102;-83
2023/06/05 01:10:40;;;;;;;3.90;2.30;;;11.90;99.90;;;;;;5040606;28;20063;-82
2023/06/05 01:13:15;;;;;;;4.55;2.63;;;12.00;99.90;;;;;;5040655;28;20047;-82
2023/06/05 01:15:41;;;;;;;6.35;3.20;;;12.00;99.90;;;;;;5053413;28;20040;-82
2023/06/05 01:18:09;;;;;;;5.13;2.72;;;12.00;99.90;;;;;;5052299;28;20043;-82
2023/06/05 01:20:39;;;;;;;3.67;2.97;;;12.00;99.90;;;;;;5036551;28;20078;-82
2023/06/05 01:23:09;;;;;;;5.45;2.65;;;12.00;99.90;;;;;;5052530;28;20183;-82
2023/06/05 01:25:40;;;;;;;3.67;2.53;;;12.00;99.90;;;;;;5053047;28;20044;-81
2023/06/05 01:28:15;;;;;;;3.92;2.53;;;11.90;99.90;;;;;;5037882;28;20189;-83
2023/06/05 01:30:52;;;;;;;8.38;3.03;;;11.90;99.90;;;;;;5053664;28;20047;-82
2023/06/05 01:33:34;;;;;;;3.53;2.85;;;11.90;99.90;;;;;;5055297;28;20123;-82
2023/06/05 01:36:04;;;;;;;7.22;3.13;;;11.90;99.90;;;;;;5054615;28;20044;-83
2023/06/05 01:38:34;;;;;;;6.43;3.13;;;11.90;99.90;;;;;;5056171;28;20040;-82
2023/06/05 01:41:01;;;;;;;4.78;3.08;;;11.90;99.90;;;;;;5039565;28;20047;-83
2023/06/05 01:43:27;;;;;;;5.93;2.85;;;11.90;99.90;;;;;;5039328;28;20051;-82
2023/06/05 01:45:56;;;;;;;5.60;3.22;;;11.90;99.90;;;;;;5023573;28;20044;-83
2023/06/05 01:48:27;;;;;;;7.78;3.20;;;11.90;99.90;;;;;;5054994;28;20044;-82
2023/06/05 01:51:02;;;;;;;6.13;3.45;;;12.00;99.90;;;;;;5055149;28;20040;-83
2023/06/05 01:53:29;;;;;;;5.20;2.97;;;11.90;99.90;;;;;;5053283;28;20036;-82
2023/06/05 01:55:57;;;;;;;5.78;3.53;;;11.90;99.90;;;;;;5053460;28;20058;-83
2023/06/05 01:58:26;;;;;;;5.63;3.20;;;12.00;99.90;;;;;;5053022;28;20044;-83
2023/06/05 02:00:53;;;;;;;7.18;3.90;;;12.00;99.90;;;;;;5053479;28;20099;-83
2023/06/05 02:03:20;;;;;;;8.18;4.07;;;12.00;99.90;;;;;;5037652;28;20075;-83
2023/06/05 02:05:46;;;;;;;6.00;3.47;;;12.00;99.90;;;;;;5052902;28;20051;-83
2023/06/05 02:08:13;;;;;;;7.45;3.67;;;12.00;99.90;;;;;;5036689;28;20044;-82
2023/06/05 02:10:42;;;;;;;3.90;3.08;;;12.40;99.90;;;;;;5035218;28;20150;-82
2023/06/05 02:13:08;;;;;;;4.80;3.47;;;12.00;99.90;;;;;;5036786;28;20127;-82
2023/06/05 02:15:35;;;;;;;5.65;3.75;;;12.00;99.90;;;;;;5035361;28;20130;-83
2023/06/05 02:18:02;;;;;;;5.60;3.53;;;12.00;99.90;;;;;;5035593;28;20044;-83
2023/06/05 02:20:28;;;;;;;7.88;4.07;;;12.00;99.90;;;;;;5052142;28;20036;-83
2023/06/05 02:22:54;;;;;;;5.90;3.83;;;12.00;99.90;;;;;;5051299;28;20047;-83
2023/06/05 02:25:21;;;;;;;6.63;3.75;;;12.00;99.90;;;;;;5035535;28;20044;-83
2023/06/05 02:27:47;;;;;;;6.05;3.83;;;12.00;99.90;;;;;;5034244;28;20040;-82
2023/06/05 02:30:13;;;;;;;10.60;3.70;;;12.00;99.90;;;;;;5035209;28;20050;-83
2023/06/05 02:32:43;;;;;;;6.40;4.10;;;12.00;99.90;;;;;;5035050;28;20898;-82
2023/06/05 02:35:13;;;;;;;8.65;5.38;;;11.90;99.90;;;;;;5035975;28;20048;-82
2023/06/05 02:37:44;;;;;;;10.52;4.10;;;12.00;99.90;;;;;;5035406;28;20051;-82
2023/06/05 02:40:11;;;;;;;8.32;4.10;;;11.90;99.90;;;;;;5051561;28;20468;-82
2023/06/05 02:42:37;;;;;;;5.70;3.08;;;12.00;99.90;;;;;;5068445;28;20040;-82
2023/06/05 02:45:04;;;;;;;8.27;3.97;;;11.90;99.90;;;;;;5067863;28;20483;-82
2023/06/05 02:47:30;;;;;;;5.15;3.30;;;11.90;99.90;;;;;;5052548;28;20437;-82
2023/06/05 02:49:57;;;;;;;4.45;3.20;;;11.90;99.90;;;;;;5035007;28;20036;-82
2023/06/05 02:52:24;;;;;;;8.30;3.15;;;11.90;99.90;;;;;;5035455;28;20051;-83
2023/06/05 02:54:50;;;;;;;5.07;3.13;;;11.90;99.90;;;;;;5016995;28;20028;-82
2023/06/05 02:57:17;;;;;;;4.13;3.22;;;11.90;99.90;;;;;;5067330;28;20040;-82
2023/06/05 02:59:43;;;;;;;6.32;3.80;;;11.90;99.90;;;;;;5049680;28;20044;-82
2023/06/05 03:02:10;;;;;;;5.40;3.42;;;11.90;99.90;;;;;;5050485;28;20391;-82
2023/06/05 03:04:36;;;;;;;4.30;2.50;;;11.50;99.90;;;;;;5067021;28;20044;-83
2023/06/05 03:07:04;;;;;;;5.38;3.42;;;11.90;99.90;;;;;;5049365;28;20521;-82
2023/06/05 03:09:30;;;;;;;4.85;3.45;;;11.90;99.90;;;;;;5034683;28;20047;-82
2023/06/05 03:11:57;;;;;;;5.20;2.83;;;11.90;99.90;;;;;;5033555;28;20131;-82
2023/06/05 03:14:23;;;;;;;4.10;2.97;;;11.90;99.90;;;;;;5051697;28;20614;-82
2023/06/05 03:16:49;;;;;;;5.25;2.97;;;11.90;99.90;;;;;;5032681;28;20032;-82
2023/06/05 03:19:14;;;;;;;4.57;3.20;;;11.90;99.90;;;;;;5017131;28;20137;-82
2023/06/05 03:21:43;;;;;;;7.22;3.33;;;11.90;99.90;;;;;;5050155;28;20047;-82
2023/06/05 03:24:14;;;;;;;5.30;2.75;;;11.90;99.90;;;;;;5017183;28;20040;-82
2023/06/05 03:26:43;;;;;;;4.18;2.97;;;12.00;99.90;;;;;;5050612;28;20079;-82
2023/06/05 03:29:12;;;;;;;5.07;2.75;;;12.00;99.90;;;;;;5048612;28;20065;-82
2023/06/05 03:31:38;;;;;;;5.15;3.10;;;12.00;99.90;;;;;;5033965;28;20044;-82
2023/06/05 03:34:05;;;;;;;5.63;3.20;;;12.00;99.90;;;;;;5049339;28;20062;-82
2023/06/05 03:36:33;;;;;;;5.40;3.88;;;12.00;99.90;;;;;;5050678;28;20051;-82
2023/06/05 03:38:59;;;;;;;6.57;2.40;;;12.00;99.90;;;;;;5033704;28;20075;-82
2023/06/05 03:41:25;;;;;;;5.15;2.40;;;12.00;99.90;;;;;;5032591;28;20052;-82
2023/06/05 03:43:52;;;;;;;3.85;2.38;;;12.00;99.90;;;;;;5049064;28;20075;-82
2023/06/05 03:46:21;;;;;;;3.42;2.75;;;12.00;99.90;;;;;;5047536;28;20491;-82
2023/06/05 03:48:48;;;;;;;8.23;3.28;;;12.00;99.90;;;;;;5033473;28;20107;-82
2023/06/05 03:51:18;;;;;;;5.72;2.70;;;12.00;99.90;;;;;;5048056;28;20135;-82
2023/06/05 03:53:44;;;;;;;4.20;2.42;;;12.00;99.90;;;;;;5050484;28;20095;-82
2023/06/05 03:56:12;;;;;;;4.07;2.50;;;12.60;99.90;;;;;;5049120;28;20044;-83
2023/06/05 03:58:41;;;;;;;4.03;2.70;;;12.00;99.90;;;;;;5050387;28;20044;-82
2023/06/05 04:01:07;;;;;;;6.43;3.00;;;12.00;99.90;;;;;;5017546;28;20112;-83
2023/06/05 04:03:37;;;;;;;3.80;2.22;;;12.00;99.90;;;;;;5031810;28;20484;-83
2023/06/05 04:06:04;;;;;;;6.55;3.08;;;12.00;99.90;;;;;;5017713;28;20548;-83
2023/06/05 04:08:30;;;;;;;5.75;2.78;;;12.10;99.90;;;;;;5031492;28;20048;-82
2023/06/05 04:10:56;;;;;;;4.88;2.80;;;12.10;99.90;;;;;;5017178;28;20052;-82
2023/06/05 04:13:22;;;;;;;5.72;3.10;;;12.10;99.90;;;;;;5032498;28;20036;-83
2023/06/05 04:15:48;;;;;;;6.28;3.75;;;12.10;99.90;;;;;;5032709;28;20491;-83
2023/06/05 04:18:15;;;;;;;4.40;3.10;;;12.10;99.90;;;;;;5032420;28;20039;-83
2023/06/05 04:20:41;;;;;;;3.88;2.92;;;12.20;99.90;;;;;;5048252;28;20036;-83
2023/06/05 04:23:06;;;;;;;5.43;3.08;;;12.20;99.90;;;;;;5033096;28;20683;-83
2023/06/05 04:25:32;;;;;;;3.50;2.60;;;12.20;99.90;;;;;;5014906;28;20040;-83
2023/06/05 04:27:58;;;;;;;4.82;2.42;;;12.20;99.90;;;;;;5033364;28;20040;-83
2023/06/05 04:30:29;;;;;;;3.17;2.28;;;12.20;99.90;;;;;;5031238;28;20543;-83
2023/06/05 04:32:55;;;;;;;2.88;1.90;;;12.30;99.90;;;;;;5033735;28;20113;-83
2023/06/05 04:35:22;;;;;;;3.40;1.77;;;12.30;99.90;;;;;;5016879;28;20040;-83
2023/06/05 04:37:48;;;;;;;2.13;1.42;;;12.30;99.90;;;;;;5049003;28;20136;-83
2023/06/05 04:40:15;;;;;;;2.75;1.70;;;12.30;99.90;;;;;;5033278;28;20139;-82
2023/06/05 04:42:41;;;;;;;3.72;1.90;;;12.30;99.90;;;;;;5016093;28;20309;-83
2023/06/05 04:45:07;;;;;;;3.08;1.70;;;12.30;99.90;;;;;;5017624;28;20044;-80
2023/06/05 04:47:34;;;;;;;4.70;1.60;;;12.40;99.90;;;;;;5031501;28;20063;-80
2023/06/05 04:50:03;;;;;;;2.22;1.33;;;11.60;99.90;;;;;;5034859;28;20125;-81
2023/06/05 04:52:34;;;;;;;3.60;1.30;;;12.50;99.90;;;;;;5052313;28;20040;-82
2023/06/05 04:55:03;;;;;;;1.60;1.27;;;12.60;99.90;;;;;;5070455;28;20044;-81
2023/06/05 04:57:30;;;;;;;1.83;1.15;;;12.60;99.90;;;;;;5052138;28;20032;-84
2023/06/05 04:59:56;;;;;;;1.90;1.48;;;12.60;99.90;;;;;;5051162;28;20044;-81
2023/06/05 05:02:23;;;;;;;1.63;1.20;;;12.70;99.90;;;;;;5037394;28;20402;-81
2023/06/05 05:04:49;;;;;;;2.70;1.65;;;12.70;99.90;;;;;;5050694;28;20075;-83
2023/06/05 05:07:16;;;;;;;2.92;1.95;;;12.70;99.90;;;;;;5053336;28;20048;-80
2023/06/05 05:09:43;;;;;;;3.35;1.13;;;12.80;99.90;;;;;;5069020;28;20044;-81
2023/06/05 05:12:12;;;;;;;4.05;1.77;;;12.90;99.90;;;;;;5053290;28;20131;-82
2023/06/05 05:14:38;;;;;;;2.25;1.27;;;12.90;99.90;;;;;;5036030;28;20514;-86
2023/06/05 05:17:04;;;;;;;2.67;1.10;;;12.90;99.90;;;;;;5035363;28;20103;-85
2023/06/05 05:19:30;;;;;;;2.28;1.50;;;12.90;99.90;;;;;;5036708;28;20048;-83
2023/06/05 05:21:56;;;;;;;1.48;0.88;;;12.90;99.90;;;;;;5051227;28;20487;-80
2023/06/05 05:24:23;;;;;;;2.67;1.38;;;12.90;99.90;;;;;;5053019;28;20039;-80
2023/06/05 05:26:49;;;;;;;2.00;1.23;;;13.00;99.90;;;;;;5017917;28;20090;-81
2023/06/05 05:29:15;;;;;;;2.55;1.55;;;13.10;99.90;;;;;;5052039;28;20047;-81
2023/06/05 05:31:41;;;;;;;2.85;1.42;;;13.00;99.90;;;;;;5034653;28;20040;-81
2023/06/05 05:34:07;;;;;;;2.50;1.27;;;12.10;99.90;;;;;;5019469;28;20040;-81
2023/06/05 05:36:39;;;;;;;2.38;1.40;;;12.30;99.90;;;;;;5035691;28;20097;-81
2023/06/05 05:39:05;;;;;;;2.43;1.00;;;13.10;99.90;;;;;;5034480;28;20522;-81
2023/06/05 05:41:32;;;;;;;1.52;1.02;;;13.20;99.90;;;;;;5037304;28;20057;-81
2023/06/05 05:43:58;;;;;;;1.83;1.13;;;13.30;99.90;;;;;;5034312;28;20144;-81
2023/06/05 05:46:24;;;;;;;1.33;0.90;;;12.80;99.90;;;;;;5020716;28;20047;-81
2023/06/05 05:48:49;;;;;;;3.55;1.25;;;13.40;99.90;;;;;;5017948;28;20047;-81
2023/06/05 05:51:15;;;;;;;1.17;0.98;;;13.40;99.90;;;;;;5035616;28;20564;-81
2023/06/05 05:53:41;;;;;;;1.50;0.80;;;13.50;99.90;;;;;;5018056;28;20174;-81
2023/06/05 05:56:07;;;;;;;1.38;0.70;;;13.50;99.90;;;;;;5018894;28;20105;-81
2023/06/05 05:58:32;;;;;;;1.58;1.00;;;13.50;99.90;;;;;;5018760;28;20097;-81
2023/06/05 06:01:00;;;;;;;1.88;0.77;;;13.50;99.90;;;;;;5033134;28;20360;-81
2023/06/05 06:03:26;;;;;;;3.30;0.90;;;13.50;99.90;;;;;;5052915;28;20123;-82
2023/06/05 06:05:53;;;;;;;1.88;1.00;;;13.50;99.90;;;;;;5051092;28;20496;-83
2023/06/05 06:08:20;;;;;;;1.80;0.98;;;13.60;99.90;;;;;;5054279;28;20148;-82
2023/06/05 06:10:45;;;;;;;3.55;0.90;;;13.60;99.90;;;;;;5036174;28;20058;-84
2023/06/05 06:13:12;;;;;;;1.58;0.95;;;13.70;99.90;;;;;;5019475;28;20071;-84
2023/06/05 06:15:38;;;;;;;2.42;1.27;;;13.70;99.90;;;;;;5018739;28;20052;-83
2023/06/05 06:18:07;;;;;;;2.88;0.80;;;13.80;99.90;;;;;;5051866;28;20048;-84
2023/06/05 06:20:34;;;;;;;3.25;1.25;;;13.90;99.90;;;;;;5036068;28;20040;-84
2023/06/05 06:23:00;;;;;;;1.70;0.80;;;13.80;99.90;;;;;;5050890;28;20052;-83
2023/06/05 06:25:28;;;;;;;1.60;1.05;;;13.80;99.90;;;;;;5020128;28;20040;-84
2023/06/05 06:27:58;;;;;;;1.92;1.00;;;13.80;99.90;;;;;;5035173;28;20043;-84
2023/06/05 06:30:25;;;;;;;1.30;0.77;;;13.80;99.90;;;;;;5053039;28;20048;-82
2023/06/05 06:32:50;;;;;;;4.88;2.88;;;13.80;99.90;;;;;;5051761;28;20090;-82
2023/06/05 06:35:16;;;;;;;2.95;1.30;;;13.80;99.90;;;;;;5050298;28;20066;-82
2023/06/05 06:37:42;;;;;;;2.65;1.10;;;13.80;99.90;;;;;;5056211;28;20413;-84
2023/06/05 06:40:09;;;;;;;1.55;0.90;;;13.90;99.90;;;;;;5020709;28;20044;-85
2023/06/05 06:42:35;;;;;;;1.83;1.17;;;14.10;99.90;;;;;;5036297;28;20048;-85
2023/06/05 06:45:01;;;;;;;1.60;0.98;;;14.30;99.90;;;;;;5034806;28;20040;-84
2023/06/05 06:47:27;;;;;;;2.35;1.58;;;14.50;99.90;;;;;;5052498;28;20040;-84
2023/06/05 06:49:54;;;;;;;3.58;1.23;;;14.80;99.90;;;;;;5051018;28;20040;-84
2023/06/05 06:52:20;;;;;;;3.25;1.50;;;15.10;99.90;;;;;;5051091;28;20111;-84
2023/06/05 06:54:46;;;;;;;3.83;1.42;;;15.20;99.90;;;;;;5018944;28;20143;-85
2023/06/05 06:57:12;;;;;;;2.90;1.83;;;15.40;99.90;;;;;;5050488;28;20065;-85
2023/06/05 06:59:40;;;;;;;1.77;1.05;;;15.50;99.90;;;;;;5018888;28;20044;-85
2023/06/05 07:02:15;;;;;;;1.48;1.05;;;15.50;99.90;;;;;;5034266;28;20052;-85
2023/06/05 07:04:43;;;;;;;3.03;1.05;;;15.50;99.90;;;;;;5051919;28;20040;-85
2023/06/05 07:07:14;;;;;;;4.55;1.15;;;15.40;99.90;;;;;;5049381;28;20134;-85
2023/06/05 07:09:44;;;;;;;2.67;1.20;;;15.30;99.90;;;;;;5018286;28;20081;-85
2023/06/05 07:12:12;;;;;;;4.80;1.40;;;15.20;99.90;;;;;;5050437;28;20086;-85
2023/06/05 07:14:38;;;;;;;2.13;1.17;;;15.20;99.90;;;;;;5032929;28;20567;-85
2023/06/05 07:17:04;;;;;;;1.40;1.10;;;15.30;99.90;;;;;;5033884;28;20048;-85
2023/06/05 07:19:36;;;;;;;1.23;0.80;;;15.50;99.90;;;;;;5049781;28;20411;-85
2023/06/05 07:22:04;;;;;;;1.75;1.10;;;15.80;99.90;;;;;;5051170;28;20087;-85
2023/06/05 07:24:30;;;;;;;2.63;1.08;;;16.00;99.90;;;;;;5033208;28;20048;-85
2023/06/05 07:27:02;;;;;;;2.63;1.00;;;16.20;99.90;;;;;;5033448;28;20426;-85
2023/06/05 07:29:27;;;;;;;5.10;1.08;;;16.40;99.90;;;;;;5050203;28;20045;-84
2023/06/05 07:31:55;;;;;;;2.13;1.10;;;16.50;99.90;;;;;;5066107;28;20048;-84
2023/06/05 07:34:23;;;;;;;2.28;1.10;;;16.50;99.90;;;;;;5050725;28;20093;-84
2023/06/05 07:36:51;;;;;;;2.28;1.02;;;16.70;99.90;;;;;;5049901;28;20361;-84
2023/06/05 07:39:19;;;;;;;3.92;1.00;;;16.80;99.90;;;;;;5017662;28;20044;-84
2023/06/05 07:41:45;;;;;;;1.48;0.85;;;16.90;99.90;;;;;;5049310;28;20067;-84
2023/06/05 07:44:13;;;;;;;1.55;0.88;;;17.00;99.90;;;;;;5049429;28;20078;-83
2023/06/05 07:46:46;;;;;;;1.90;0.98;;;17.20;99.90;;;;;;5051080;28;20070;-84
2023/06/05 07:49:12;;;;;;;2.75;1.17;;;17.20;99.90;;;;;;5049445;28;20044;-84
2023/06/05 07:51:39;;;;;;;2.30;0.95;;;17.00;99.90;;;;;;5033685;28;20086;-84
2023/06/05 07:54:10;;;;;;;1.80;1.05;;;16.80;99.90;;;;;;5049229;28;20507;-85
2023/06/05 07:56:36;;;;;;;2.90;1.00;;;16.80;99.90;;;;;;5033762;28;20040;-84
2023/06/05 07:59:03;;;;;;;1.85;1.20;;;16.80;99.90;;;;;;5016752;28;20040;-85
2023/06/05 08:01:30;;;;;;;1.48;1.08;;;16.90;99.90;;;;;;5050016;28;20044;-84
2023/06/05 08:03:56;;;;;;;2.75;0.90;;;17.00;99.90;;;;;;5034232;28;20039;-83
2023/06/05 08:06:27;;;;;;;2.33;0.93;;;17.20;99.90;;;;;;5049562;28;20055;-84
2023/06/05 08:08:53;;;;;;;1.55;0.88;;;17.30;99.90;;;;;;5033528;28;20047;-84
2023/06/05 08:11:18;;;;;;;1.20;0.93;;;17.50;99.90;;;;;;5016179;28;20051;-84
2023/06/05 08:13:45;;;;;;;2.67;1.20;;;17.80;99.90;;;;;;5033938;28;20097;-84
2023/06/05 08:16:11;;;;;;;3.17;1.20;;;17.90;99.90;;;;;;5032803;28;20040;-85
2023/06/05 08:18:36;;;;;;;4.03;1.10;;;17.90;99.90;;;;;;5017335;28;20052;-85
2023/06/05 08:21:02;;;;;;;1.83;1.13;;;17.90;99.90;;;;;;5016208;28;20086;-84
2023/06/05 08:23:28;;;;;;;1.90;1.00;;;18.50;99.90;;;;;;5015294;28;20040;-85
2023/06/05 08:25:54;;;;;;;1.77;1.10;;;17.70;99.90;;;;;;5019282;28;20158;-84
2023/06/05 08:28:20;;;;;;;1.90;1.23;;;17.60;99.90;;;;;;5020249;28;20051;-84
2023/06/05 08:30:46;;;;;;;4.78;3.58;;;17.50;99.90;;;;;;5054114;28;20130;-84
2023/06/05 08:33:12;;;;;;;2.67;1.40;;;17.60;99.90;;;;;;5020145;28;20137;-84
2023/06/05 08:35:41;;;;;;;3.50;1.60;;;17.70;99.90;;;;;;5020554;28;20097;-84
2023/06/05 08:38:07;;;;;;;2.80;1.02;;;17.70;99.90;;;;;;5053294;28;20071;-84
2023/06/05 08:40:33;;;;;;;2.00;1.45;;;17.60;99.90;;;;;;5053086;28;20076;-84
2023/06/05 08:43:01;;;;;;;3.30;1.05;;;17.50;99.90;;;;;;5021136;28;20048;-83
2023/06/05 08:45:27;;;;;;;2.15;1.30;;;17.30;99.90;;;;;;5053305;28;20090;-84
2023/06/05 08:47:58;;;;;;;2.38;1.50;;;17.20;99.90;;;;;;5036417;28;20044;-85
2023/06/05 08:50:25;;;;;;;2.35;1.35;;;17.20;99.90;;;;;;5052726;28;20040;-84
2023/06/05 08:52:52;;;;;;;2.15;1.23;;;17.40;99.90;;;;;;5052235;28;20528;-83
2023/06/05 08:55:18;;;;;;;2.55;1.40;;;17.70;99.90;;;;;;5019948;28;20395;-85
2023/06/05 08:57:44;;;;;;;3.13;1.70;;;18.00;99.90;;;;;;5036461;28;20169;-82
2023/06/05 09:00:11;;;;;;;1.67;1.20;;;18.20;99.90;;;;;;5019524;28;20460;-84
2023/06/05 09:02:40;;;;;;;3.08;1.10;;;18.30;99.90;;;;;;5021058;28;20054;-83
2023/06/05 09:05:06;;;;;;;4.25;1.52;;;18.40;99.90;;;;;;5052495;28;20054;-83
2023/06/05 09:07:33;;;;;;;2.55;1.60;;;18.50;99.90;;;;;;5018665;28;20060;-82
2023/06/05 09:09:59;;;;;;;4.18;1.48;;;18.60;99.90;;;;;;5035536;28;20048;-83
2023/06/05 09:12:25;;;;;;;3.55;1.80;;;18.70;99.90;;;;;;5035862;28;20104;-83
2023/06/05 09:14:52;;;;;;;3.88;1.85;;;18.00;99.90;;;;;;5018879;28;20044;-82
2023/06/05 09:17:18;;;;;;;1.88;1.40;;;18.90;99.90;;;;;;5052091;28;20107;-83
2023/06/05 09:19:46;;;;;;;2.25;1.20;;;18.90;99.90;;;;;;5035019;28;20119;-83
2023/06/05 09:22:13;;;;;;;3.17;1.40;;;18.90;99.90;;;;;;5051203;28;20044;-83
2023/06/05 09:24:40;;;;;;;2.22;1.13;;;18.80;99.90;;;;;;5050654;28;20446;-83
2023/06/05 09:27:16;;;;;;;1.63;1.35;;;18.70;99.90;;;;;;5034380;28;20109;-83
2023/06/05 09:29:45;;;;;;;3.70;1.73;;;18.80;99.90;;;;;;5050565;28;20048;-83
2023/06/05 09:32:14;;;;;;;3.35;1.40;;;18.70;99.90;;;;;;5034287;28;20051;-83
2023/06/05 09:34:40;;;;;;;1.75;1.27;;;18.90;99.90;;;;;;5050268;28;20052;-83
2023/06/05 09:37:11;;;;;;;2.78;1.23;;;19.10;99.90;;;;;;5032708;28;20527;-83
2023/06/05 09:39:43;;;;;;;1.95;1.00;;;19.00;99.90;;;;;;5034768;28;20408;-83
2023/06/05 09:42:09;;;;;;;2.35;1.02;;;18.80;99.90;;;;;;5035124;28;20430;-82
2023/06/05 09:44:36;;;;;;;3.95;1.17;;;18.60;99.90;;;;;;5034236;28;20063;-83
2023/06/05 09:47:09;;;;;;;2.65;1.30;;;18.50;99.90;;;;;;5051102;28;20141;-83
2023/06/05 09:49:41;;;;;;;2.50;1.65;;;18.50;99.90;;;;;;5034425;28;20048;-84
2023/06/05 09:52:09;;;;;;;2.10;1.43;;;18.50;99.90;;;;;;5050664;28;20047;-84
2023/06/05 09:54:37;;;;;;;1.83;1.20;;;18.60;99.90;;;;;;5050627;28;20145;-83
2023/06/05 09:57:05;;;;;;;1.67;0.93;;;18.80;99.90;;;;;;5050410;28;20550;-83
2023/06/05 09:59:39;;;;;;;2.75;1.33;;;19.00;99.90;;;;;;5033323;28;20495;-82
2023/06/05 10:02:06;;;;;;;1.25;0.90;;;19.30;99.90;;;;;;5049927;28;20094;-82
2023/06/05 10:04:46;;;;;;;2.13;1.20;;;19.60;99.90;;;;;;5050735;28;20040;-82
2023/06/05 10:07:12;;;;;;;1.92;1.08;;;19.80;99.90;;;;;;5065918;28;20071;-83
2023/06/05 10:09:41;;;;;;;1.50;1.05;;;19.90;99.90;;;;;;5034490;28;20110;-83
2023/06/05 10:12:08;;;;;;;1.80;1.13;;;19.90;99.90;;;;;;5034074;28;20050;-83
2023/06/05 10:14:36;;;;;;;1.00;0.70;;;20.10;99.90;;;;;;5049755;28;20094;-83
2023/06/05 10:17:02;;;;;;;1.73;0.90;;;20.00;99.90;;;;;;5050429;28;20040;-87
2023/06/05 10:19:29;;;;;;;1.27;0.90;;;20.00;99.90;;;;;;5033074;28;20083;-87
2023/06/05 10:21:55;;;;;;;1.77;1.10;;;20.10;99.90;;;;;;5017135;28;20044;-87
2023/06/05 10:24:34;;;;;;;2.95;1.30;;;20.20;99.90;;;;;;5032960;28;20101;-85
2023/06/05 10:27:12;;;;;;;2.13;0.93;;;20.20;99.90;;;;;;5050006;28;20068;-87
2023/06/05 10:29:59;;;;;;;3.03;0.93;;;20.10;99.90;;;;;;5049873;28;20101;-88
2023/06/05 10:32:28;;;;;;;2.05;1.17;;;21.50;99.90;;;;;;5049770;28;20052;-86
2023/06/05 10:35:08;;;;;;;1.75;1.10;;;20.20;99.90;;;;;;5050303;28;20051;-86
2023/06/05 10:37:57;;;;;;;3.00;1.15;;;20.20;99.90;;;;;;5049753;28;20059;-85
2023/06/05 10:40:25;;;;;;;1.55;0.88;;;20.20;99.90;;;;;;5049404;28;20058;-86
2023/06/05 10:42:51;;;;;;;1.50;0.80;;;20.20;99.90;;;;;;5033510;28;20055;-86
2023/06/05 10:45:32;;;;;;;4.57;1.50;;;20.20;99.90;;;;;;5032796;28;20048;-86
2023/06/05 10:47:58;;;;;;;1.63;0.95;;;20.20;99.90;;;;;;5033750;28;20048;-87
2023/06/05 10:50:26;;;;;;;0.93;0.73;;;20.10;99.90;;;;;;5048921;28;20142;-86
2023/06/05 10:52:54;;;;;;;1.83;0.70;;;20.00;99.90;;;;;;5034445;28;20399;-87
2023/06/05 10:55:21;;;;;;;3.22;0.77;;;20.50;99.90;;;;;;5052621;28;20044;-86
2023/06/05 10:58:13;;;;;;;2.17;0.70;;;20.00;99.90;;;;;;5035000;28;20075;-86
2023/06/05 11:01:22;;;;;;;1.10;0.88;;;20.10;99.90;;;;;;5051814;28;20055;-87
2023/06/05 11:04:00;;;;;;;2.22;1.02;;;20.20;99.90;;;;;;5050879;28;20506;-87
2023/06/05 11:06:27;;;;;;;2.30;0.95;;;20.30;99.80;;;;;;5017264;28;20052;-87
2023/06/05 11:09:15;;;;;;;1.27;0.70;;;20.30;99.90;;;;;;5050658;28;20036;-86
2023/06/05 11:11:58;;;;;;;1.65;0.85;;;20.20;99.50;;;;;;5048883;28;20136;-87
2023/06/05 11:14:25;;;;;;;;;;;20.20;99.80;;;;;;5049486;28;20087;-86
2023/06/05 11:16:50;;;;;;;1.83;0.98;;;20.20;99.40;;;;;;5049838;28;19927;-86
2023/06/05 11:19:22;;;;;;;3.13;0.93;;;20.10;99.90;;;;;;5016167;28;20040;-88
2023/06/05 11:22:09;;;;;;;1.98;0.95;;;20.10;99.70;;;;;;5051225;28;20048;-87
2023/06/05 11:24:36;;;;;;;3.20;1.00;;;20.20;99.60;;;;;;5048964;28;20048;-87
2023/06/05 11:27:06;;;;;;;1.52;1.00;;;20.40;99.70;;;;;;5050615;28;20569;-86
2023/06/05 11:29:33;;;;;;;2.45;1.08;;;20.50;99.60;;;;;;5032952;28;20040;-87
2023/06/05 11:32:00;;;;;;;8.20;4.93;;;20.50;99.30;;;;;;5049883;28;20072;-86
2023/06/05 11:34:27;;;;;;;3.10;1.38;;;20.50;99.40;;;;;;5049594;28;20109;-87
2023/06/05 11:36:53;;;;;;;2.90;1.00;;;20.60;99.30;;;;;;5032601;28;20360;-86
2023/06/05 11:39:19;;;;;;;1.42;0.70;;;20.60;99.00;;;;;;5050088;28;20478;-86
2023/06/05 11:41:52;;;;;;;2.92;1.65;;;20.60;98.90;;;;;;5049583;28;20103;-86
2023/06/05 11:44:32;;;;;;;1.95;0.88;;;19.50;98.80;;;;;;5049899;28;20044;-87
2023/06/05 11:46:58;;;;;;;3.35;1.30;;;20.80;98.70;;;;;;5017888;28;20078;-86
2023/06/05 11:49:28;;;;;;;1.88;0.95;;;20.90;98.80;;;;;;5050606;28;20043;-87
2023/06/05 11:51:55;;;;;;;2.78;1.30;;;20.90;98.30;;;;;;5034149;28;20504;-86
2023/06/05 11:54:29;;;;;;;2.53;1.20;;;20.80;98.50;;;;;;5034415;28;20052;-86
2023/06/05 11:57:07;;;;;;;1.10;0.90;;;20.90;98.80;;;;;;5035383;28;20097;-86
2023/06/05 11:59:36;;;;;;;2.15;0.85;;;21.00;98.60;;;;;;5050669;28;20059;-88
2023/06/05 12:02:03;;;;;;;1.63;0.93;;;20.90;98.40;;;;;;5035474;28;20044;-86
2023/06/05 12:04:33;;;;;;;1.88;1.10;;;20.80;98.50;;;;;;5034868;28;20048;-87
2023/06/05 12:07:01;;;;;;;2.50;0.90;;;20.90;98.60;;;;;;5031149;28;20132;-87
2023/06/05 12:09:27;;;;;;;1.90;0.95;;;20.90;98.50;;;;;;5030845;28;20280;-87
2023/06/05 12:12:03;;;;;;;2.50;0.93;;;20.90;98.30;;;;;;5030486;28;20257;-87
2023/06/05 12:14:31;;;;;;;2.08;0.95;;;20.80;98.20;;;;;;5046796;28;20072;-88
2023/06/05 12:16:57;;;;;;;1.98;1.08;;;20.90;98.30;;;;;;5063662;28;20049;-89
2023/06/05 12:19:23;;;;;;;1.85;1.00;;;20.90;98.00;;;;;;5029854;28;20041;-86
2023/06/05 12:21:54;;;;;;;1.70;1.25;;;20.90;98.10;;;;;;5046811;28;20089;-87
2023/06/05 12:24:26;;;;;;;2.35;0.95;;;20.40;98.10;;;;;;5045707;28;20052;-88
2023/06/05 12:27:04;;;;;;;4.85;1.27;;;20.50;98.00;;;;;;5014387;28;20040;-87
2023/06/05 12:29:40;;;;;;;1.50;0.95;;;20.40;98.40;;;;;;5045878;28;20044;-89
2023/06/05 12:32:24;;;;;;;2.03;1.20;;;20.50;98.50;;;;;;5046689;28;20051;-87
2023/06/05 12:34:52;;;;;;;2.72;1.08;;;20.70;98.40;;;;;;5045876;28;20044;-87
2023/06/05 12:37:37;;;;;;;3.88;1.20;;;20.80;98.40;;;;;;5046282;28;20098;-87
2023/06/05 12:40:10;;;;;;;2.53;1.35;;;20.90;97.90;;;;;;5046219;28;20752;-87
2023/06/05 12:42:37;;;;;;;2.08;1.02;;;20.60;98.20;;;;;;5045440;28;20045;-86
2023/06/05 12:45:04;;;;;;;1.50;1.20;;;20.70;98.10;;;;;;5013175;28;20104;-86
2023/06/05 12:47:30;;;;;;;2.25;1.50;;;20.80;98.10;;;;;;5029412;28;20055;-87
2023/06/05 12:49:59;;;;;;;3.17;1.85;;;20.90;97.80;;;;;;5015281;28;20037;-93
2023/06/05 12:52:25;;;;;;;1.92;1.38;;;20.90;97.80;;;;;;5033302;28;20049;-92
2023/06/05 12:54:52;;;;;;;3.42;1.70;;;22.00;98.30;;;;;;5046979;28;20029;-94